Time;durP1;ratioP1;P1;durP2;ratioP2;P2;SDS_P1;SDS_P2;PMS_P1;PMS_P2;Temp;Humidity;BMP_temperature;BMP_pressure;BME280_temperature;BME280_humidity;BME280_pressure;Samples;Min_cycle;Max_cycle;Signal;HPM_P1;HPM_P2
2023/06/09 00:00:49;;;;;;;11.02;6.88;;;22.30;59.40;;;;;;5098694;28;20092;-80
2023/06/09 00:03:21;;;;;;;10.57;6.97;;;22.30;59.50;;;;;;5099188;28;20040;-80
2023/06/09 00:05:48;;;;;;;9.10;6.80;;;22.20;59.50;;;;;;5098623;28;20044;-80
2023/06/09 00:08:14;;;;;;;11.63;6.50;;;22.30;59.60;;;;;;5097485;28;20041;-80
2023/06/09 00:10:40;;;;;;;9.25;6.75;;;22.20;59.60;;;;;;5098852;28;20659;-80
2023/06/09 00:13:07;;;;;;;9.10;6.47;;;22.20;59.70;;;;;;5097325;28;20353;-80
2023/06/09 00:15:33;;;;;;;9.07;7.10;;;22.20;59.80;;;;;;5098328;28;20032;-80
2023/06/09 00:18:02;;;;;;;7.82;6.32;;;22.20;59.70;;;;;;5096917;28;20032;-80
2023/06/09 00:20:33;;;;;;;9.80;6.40;;;22.20;59.70;;;;;;5098467;27;20108;-80
2023/06/09 00:23:00;;;;;;;8.25;6.00;;;22.10;59.70;;;;;;5096618;28;20032;-78
2023/06/09 00:25:26;;;;;;;10.13;6.82;;;22.20;59.80;;;;;;5096938;27;20032;-78
2023/06/09 00:27:52;;;;;;;11.68;6.88;;;22.20;59.90;;;;;;5098800;28;20567;-79
2023/06/09 00:30:22;;;;;;;7.60;6.05;;;22.10;60.00;;;;;;5097936;28;20031;-79
2023/06/09 00:32:48;;;;;;;9.38;6.70;;;22.10;60.10;;;;;;5098855;28;20394;-79
2023/06/09 00:35:14;;;;;;;8.65;6.97;;;22.10;60.10;;;;;;5096854;28;20148;-79
2023/06/09 00:37:40;;;;;;;9.65;7.20;;;22.10;60.20;;;;;;5097202;28;20038;-79
2023/06/09 00:40:07;;;;;;;7.80;6.63;;;22.00;60.30;;;;;;5080970;28;20044;-79
2023/06/09 00:42:33;;;;;;;8.82;6.70;;;22.00;60.20;;;;;;5096910;28;20055;-79
2023/06/09 00:45:00;;;;;;;8.95;5.95;;;22.00;60.40;;;;;;5096538;28;20044;-79
2023/06/09 00:47:27;;;;;;;9.65;6.93;;;22.00;60.50;;;;;;5096494;28;20036;-79
2023/06/09 00:49:53;;;;;;;9.65;6.30;;;22.00;60.60;;;;;;5097470;28;20024;-79
2023/06/09 00:52:19;;;;;;;7.93;6.68;;;22.00;60.70;;;;;;5097569;28;20032;-79
2023/06/09 00:54:46;;;;;;;11.05;6.05;;;22.00;60.80;;;;;;5098042;28;20090;-79
2023/06/09 00:57:12;;;;;;;8.88;6.40;;;22.00;60.80;;;;;;5096460;28;20061;-79
2023/06/09 00:59:38;;;;;;;9.10;6.65;;;22.00;60.90;;;;;;5096398;27;20079;-79
2023/06/09 01:02:05;;;;;;;11.82;6.80;;;21.90;60.90;;;;;;5098357;28;20055;-79
2023/06/09 01:04:32;;;;;;;7.57;6.38;;;21.90;61.10;;;;;;5097504;28;20032;-80
2023/06/09 01:07:28;;;;;;;9.27;7.18;;;21.90;61.10;;;;;;5112508;27;20522;-79
2023/06/09 01:09:58;;;;;;;7.45;6.45;;;21.90;61.10;;;;;;5096889;28;20553;-79
2023/06/09 01:12:33;;;;;;;10.23;6.90;;;21.90;61.10;;;;;;5084047;28;20035;-80
2023/06/09 01:15:25;;;;;;;11.88;7.03;;;21.80;61.20;;;;;;5096754;28;20035;-79
2023/06/09 01:17:56;;;;;;;12.57;7.13;;;21.90;61.20;;;;;;5096023;28;20133;-79
2023/06/09 01:20:56;;;;;;;11.77;7.40;;;21.90;61.40;;;;;;5096209;28;20517;-79
2023/06/09 01:23:51;;;;;;;10.77;7.03;;;21.80;61.30;;;;;;5096849;28;20031;-79
2023/06/09 01:26:18;;;;;;;11.60;6.53;;;21.80;61.40;;;;;;5096347;28;20343;-79
2023/06/09 01:28:47;;;;;;;8.82;6.88;;;21.80;61.50;;;;;;5096226;28;20088;-79
2023/06/09 01:31:15;;;;;;;12.02;7.10;;;21.80;61.50;;;;;;5083100;28;20521;-79
2023/06/09 01:33:44;;;;;;;11.07;6.88;;;21.80;61.60;;;;;;5096287;28;20557;-80
2023/06/09 01:36:11;;;;;;;8.10;6.30;;;21.80;61.60;;;;;;5097098;27;20043;-79
2023/06/09 01:38:38;;;;;;;11.05;7.07;;;21.80;61.60;;;;;;5097004;28;20028;-80
2023/06/09 01:41:04;;;;;;;9.88;6.65;;;21.80;61.50;;;;;;5097694;28;20446;-79
2023/06/09 01:43:30;;;;;;;9.95;7.40;;;21.80;61.60;;;;;;5096936;28;20072;-79
2023/06/09 01:45:56;;;;;;;11.35;6.57;;;21.80;61.70;;;;;;5095588;28;20075;-79
2023/06/09 01:48:48;;;;;;;10.38;6.82;;;21.80;61.70;;;;;;5094914;28;20035;-79
2023/06/09 01:51:18;;;;;;;11.05;7.05;;;21.80;61.60;;;;;;5096138;27;20036;-79
2023/06/09 01:53:52;;;;;;;9.43;6.30;;;21.80;61.60;;;;;;5095875;28;20039;-79
2023/06/09 01:56:25;;;;;;;8.85;6.75;;;21.80;61.70;;;;;;5093982;27;20036;-79
2023/06/09 01:58:59;;;;;;;9.18;6.43;;;21.80;61.90;;;;;;5095165;28;20584;-79
2023/06/09 02:01:26;;;;;;;11.40;7.10;;;21.80;61.90;;;;;;5095476;28;20726;-79
2023/06/09 02:03:55;;;;;;;9.65;6.35;;;21.80;62.10;;;;;;5096357;28;20088;-79
2023/06/09 02:06:21;;;;;;;8.95;6.38;;;21.80;62.20;;;;;;5096471;28;20031;-79
2023/06/09 02:08:47;;;;;;;8.90;6.45;;;21.80;62.20;;;;;;5093982;28;20089;-79
2023/06/09 02:11:15;;;;;;;9.20;6.40;;;21.80;62.10;;;;;;5095285;28;20056;-79
2023/06/09 02:13:41;;;;;;;10.65;6.47;;;21.80;62.00;;;;;;5069720;28;20035;-79
2023/06/09 02:16:08;;;;;;;8.55;6.55;;;21.80;62.30;;;;;;5095625;28;20636;-79
2023/06/09 02:18:34;;;;;;;8.02;6.28;;;21.80;62.30;;;;;;5094755;28;20028;-80
2023/06/09 02:20:59;;;;;;;9.05;5.90;;;21.90;62.30;;;;;;5095973;28;20045;-79
2023/06/09 02:23:26;;;;;;;8.20;6.13;;;21.90;62.10;;;;;;5096517;28;20031;-79
2023/06/09 02:25:52;;;;;;;6.65;5.72;;;22.00;62.00;;;;;;5095581;28;20040;-79
2023/06/09 02:28:18;;;;;;;9.50;6.35;;;22.10;62.00;;;;;;5096211;28;20038;-79
2023/06/09 02:30:44;;;;;;;9.13;6.38;;;22.20;62.00;;;;;;5094457;28;20039;-80
2023/06/09 02:33:11;;;;;;;10.75;6.47;;;22.30;61.80;;;;;;5096506;28;20036;-79
2023/06/09 02:35:37;;;;;;;7.32;5.78;;;22.30;61.60;;;;;;5094332;28;20028;-79
2023/06/09 02:38:05;;;;;;;8.73;5.82;;;22.40;61.30;;;;;;5077818;28;20032;-80
2023/06/09 02:40:32;;;;;;;7.22;5.85;;;22.50;61.00;;;;;;5095430;28;20159;-79
2023/06/09 02:43:00;;;;;;;9.07;5.60;;;22.60;60.90;;;;;;5095108;28;20039;-79
2023/06/09 02:45:26;;;;;;;7.45;5.25;;;22.60;60.60;;;;;;5096315;28;20100;-80
2023/06/09 02:47:52;;;;;;;7.45;6.15;;;22.80;60.50;;;;;;5094730;28;20035;-80
2023/06/09 02:50:19;;;;;;;7.13;6.22;;;22.80;60.10;;;;;;5095511;28;20582;-80
2023/06/09 02:52:48;;;;;;;11.75;5.80;;;22.90;60.00;;;;;;5093951;28;20403;-81
2023/06/09 02:55:18;;;;;;;7.70;5.13;;;23.00;60.40;;;;;;5095378;28;20462;-80
2023/06/09 02:57:46;;;;;;;7.60;5.55;;;23.00;59.70;;;;;;5095116;28;20536;-80
2023/06/09 03:00:15;;;;;;;8.88;5.18;;;23.10;59.50;;;;;;5096434;28;20035;-81
2023/06/09 03:02:46;;;;;;;6.93;5.50;;;23.20;59.30;;;;;;5094213;28;20032;-80
2023/06/09 03:05:13;;;;;;;6.18;5.13;;;23.30;59.40;;;;;;5096172;28;20402;-81
2023/06/09 03:07:39;;;;;;;7.28;5.32;;;23.30;59.10;;;;;;5093977;28;20105;-80
2023/06/09 03:10:07;;;;;;;7.25;5.60;;;23.30;59.20;;;;;;5093921;28;20131;-80
2023/06/09 03:12:37;;;;;;;6.38;5.50;;;23.30;59.30;;;;;;5093976;28;20072;-79
2023/06/09 03:15:04;;;;;;;9.15;5.80;;;23.30;59.40;;;;;;5094549;28;20520;-79
2023/06/09 03:17:31;;;;;;;6.85;5.30;;;23.40;59.40;;;;;;5094594;28;20498;-79
2023/06/09 03:19:57;;;;;;;7.03;5.45;;;23.40;59.30;;;;;;5095010;28;20040;-79
2023/06/09 03:22:23;;;;;;;6.80;5.20;;;23.40;59.10;;;;;;5094437;28;20043;-79
2023/06/09 03:24:49;;;;;;;9.35;5.35;;;23.50;58.90;;;;;;5093304;28;20075;-79
2023/06/09 03:27:17;;;;;;;7.53;5.10;;;23.60;58.70;;;;;;5094118;28;20040;-80
2023/06/09 03:29:44;;;;;;;7.65;5.50;;;23.70;58.30;;;;;;5093443;28;20028;-79
2023/06/09 03:32:10;;;;;;;5.80;4.60;;;23.70;58.20;;;;;;5094998;28;20047;-80
2023/06/09 03:34:37;;;;;;;7.32;5.13;;;23.80;58.10;;;;;;5094471;28;20031;-80
2023/06/09 03:37:04;;;;;;;9.73;4.75;;;23.90;58.10;;;;;;5077377;28;20047;-81
2023/06/09 03:39:30;;;;;;;5.30;4.80;;;24.00;58.10;;;;;;5092735;28;20042;-81
2023/06/09 03:41:57;;;;;;;7.03;4.95;;;24.00;58.00;;;;;;5094137;28;20032;-80
2023/06/09 03:44:24;;;;;;;6.97;4.75;;;24.10;57.80;;;;;;5094679;28;20034;-81
2023/06/09 03:46:52;;;;;;;6.25;4.80;;;24.20;57.80;;;;;;5077446;28;20031;-81
2023/06/09 03:49:18;;;;;;;7.25;4.43;;;24.20;57.60;;;;;;5077635;28;20484;-81
2023/06/09 03:51:44;;;;;;;6.43;4.40;;;24.30;57.50;;;;;;5111085;28;20071;-81
2023/06/09 03:54:10;;;;;;;5.30;4.25;;;24.40;57.50;;;;;;5094220;28;20043;-81
2023/06/09 03:56:36;;;;;;;6.65;4.70;;;24.40;57.30;;;;;;5074532;28;20081;-80
2023/06/09 03:59:02;;;;;;;5.07;4.57;;;24.40;57.10;;;;;;5095623;28;20028;-80
2023/06/09 04:01:30;;;;;;;5.63;4.88;;;24.40;57.70;;;;;;5076628;28;20119;-80
2023/06/09 04:03:56;;;;;;;7.35;5.15;;;24.50;57.00;;;;;;5093163;28;20094;-80
2023/06/09 04:06:23;;;;;;;6.60;4.35;;;24.50;57.10;;;;;;5081575;28;20118;-80
2023/06/09 04:08:51;;;;;;;5.30;4.43;;;24.60;57.00;;;;;;5094313;28;20036;-80
2023/06/09 04:11:17;;;;;;;5.78;4.28;;;24.60;56.80;;;;;;5075749;28;20075;-80
2023/06/09 04:13:43;;;;;;;10.32;4.95;;;24.70;56.70;;;;;;5095491;28;20116;-80
2023/06/09 04:16:10;;;;;;;5.22;4.45;;;24.80;56.50;;;;;;5077032;28;20040;-80
2023/06/09 04:18:37;;;;;;;6.18;4.40;;;24.90;56.40;;;;;;5091401;28;20042;-80
2023/06/09 04:21:03;;;;;;;7.22;4.30;;;24.90;56.10;;;;;;5098899;28;20039;-80
2023/06/09 04:23:29;;;;;;;6.03;4.28;;;25.00;56.00;;;;;;5097328;28;20085;-80
2023/06/09 04:25:55;;;;;;;5.53;4.25;;;25.10;55.90;;;;;;5098046;28;20032;-80
2023/06/09 04:28:28;;;;;;;4.70;4.07;;;25.10;55.80;;;;;;5097704;28;20547;-80
2023/06/09 04:30:57;;;;;;;5.07;4.20;;;25.20;55.60;;;;;;5097092;28;20043;-80
2023/06/09 04:33:26;;;;;;;5.18;3.97;;;25.20;55.40;;;;;;5102351;28;20035;-79
2023/06/09 04:35:54;;;;;;;5.18;4.43;;;25.30;55.40;;;;;;5102488;28;20131;-80
2023/06/09 04:38:23;;;;;;;5.78;4.00;;;25.40;55.30;;;;;;5096568;28;20532;-80
2023/06/09 04:40:50;;;;;;;5.38;4.13;;;25.40;55.20;;;;;;5095837;28;20036;-80
2023/06/09 04:43:18;;;;;;;4.30;3.85;;;25.50;55.70;;;;;;5096376;28;20032;-80
2023/06/09 04:45:47;;;;;;;4.78;4.22;;;25.60;55.00;;;;;;5097404;28;20538;-80
2023/06/09 04:48:17;;;;;;;5.63;4.00;;;25.60;54.80;;;;;;5096466;28;20422;-80
2023/06/09 04:50:45;;;;;;;4.57;4.18;;;25.70;54.70;;;;;;5097190;28;20028;-80
2023/06/09 04:53:11;;;;;;;3.92;3.55;;;25.80;54.60;;;;;;5096865;28;20055;-80
2023/06/09 04:55:42;;;;;;;5.40;3.90;;;25.80;54.50;;;;;;5096325;28;20028;-80
2023/06/09 04:58:09;;;;;;;4.25;3.85;;;25.80;54.30;;;;;;5083604;28;20414;-80
2023/06/09 05:00:36;;;;;;;4.65;3.95;;;25.90;54.30;;;;;;5095308;28;20591;-80
2023/06/09 05:03:03;;;;;;;4.30;3.80;;;26.00;54.20;;;;;;5096499;28;20039;-80
2023/06/09 05:05:29;;;;;;;5.15;4.05;;;26.10;54.20;;;;;;5096466;28;20097;-80
2023/06/09 05:07:58;;;;;;;6.30;4.15;;;26.10;53.90;;;;;;5079380;28;20054;-80
2023/06/09 05:10:25;;;;;;;4.78;3.85;;;26.20;53.80;;;;;;5095953;28;20036;-80
2023/06/09 05:12:53;;;;;;;5.80;4.03;;;26.20;53.70;;;;;;5096074;28;20127;-80
2023/06/09 05:15:19;;;;;;;5.82;3.65;;;26.30;53.60;;;;;;5095668;28;20052;-81
2023/06/09 05:17:47;;;;;;;6.35;3.92;;;26.30;53.40;;;;;;5096933;28;20034;-80
2023/06/09 05:20:14;;;;;;;5.45;3.97;;;26.40;53.40;;;;;;5079921;28;20034;-81
2023/06/09 05:22:40;;;;;;;7.22;3.83;;;26.40;53.30;;;;;;5082854;28;20028;-80
2023/06/09 05:25:10;;;;;;;4.38;3.70;;;26.40;53.40;;;;;;5097637;28;20150;-81
2023/06/09 05:27:37;;;;;;;4.90;3.72;;;26.40;53.30;;;;;;5095371;28;20044;-80
2023/06/09 05:30:03;;;;;;;4.93;3.75;;;26.50;53.20;;;;;;5082934;28;20523;-80
2023/06/09 05:32:30;;;;;;;4.20;3.80;;;26.60;53.20;;;;;;5078278;27;20084;-80
2023/06/09 05:34:56;;;;;;;4.90;4.25;;;26.60;53.10;;;;;;5097240;28;20783;-80
2023/06/09 05:37:23;;;;;;;4.97;3.65;;;26.60;52.90;;;;;;5095563;28;20033;-80
2023/06/09 05:39:49;;;;;;;4.25;3.40;;;26.70;52.80;;;;;;5082156;28;20036;-80
2023/06/09 05:42:15;;;;;;;4.97;3.78;;;26.80;52.60;;;;;;5097650;28;20070;-80
2023/06/09 05:44:41;;;;;;;4.10;3.70;;;26.80;52.60;;;;;;5096890;28;20387;-80
2023/06/09 05:47:07;;;;;;;6.70;3.90;;;26.90;53.10;;;;;;5100470;28;20030;-81
2023/06/09 05:49:34;;;;;;;3.95;3.33;;;26.90;52.40;;;;;;5098552;28;20035;-80
2023/06/09 05:52:00;;;;;;;4.07;3.58;;;27.00;52.30;;;;;;5097627;28;20038;-81
2023/06/09 05:54:26;;;;;;;3.83;3.30;;;27.00;52.20;;;;;;5097729;28;20036;-81
2023/06/09 05:56:53;;;;;;;3.92;3.53;;;27.00;52.10;;;;;;5095678;28;20453;-81
2023/06/09 05:59:20;;;;;;;3.85;3.50;;;27.00;52.00;;;;;;5095011;28;20048;-81
2023/06/09 06:01:50;;;;;;;3.67;3.22;;;27.10;52.10;;;;;;5095701;28;20043;-81
2023/06/09 06:04:17;;;;;;;4.60;4.10;;;27.10;51.90;;;;;;5095547;28;20058;-80
2023/06/09 06:06:43;;;;;;;4.32;3.63;;;27.20;51.90;;;;;;5095416;28;20028;-80
2023/06/09 06:09:09;;;;;;;5.55;3.90;;;27.10;51.70;;;;;;5081821;28;20040;-81
2023/06/09 06:11:35;;;;;;;3.72;3.42;;;27.20;51.70;;;;;;5097072;28;20039;-81
2023/06/09 06:14:01;;;;;;;3.92;3.53;;;27.20;51.50;;;;;;5097970;28;20036;-80
2023/06/09 06:16:27;;;;;;;6.72;4.15;;;27.20;51.40;;;;;;5096292;28;20384;-80
2023/06/09 06:18:53;;;;;;;3.83;3.53;;;27.20;51.30;;;;;;5095613;28;20490;-80
2023/06/09 06:21:19;;;;;;;4.82;3.70;;;27.20;51.20;;;;;;5093984;28;20051;-82
2023/06/09 06:23:44;;;;;;;4.22;3.63;;;27.30;51.10;;;;;;5096637;28;20040;-82
2023/06/09 06:26:11;;;;;;;5.28;3.78;;;27.30;51.00;;;;;;5096838;28;20073;-82
2023/06/09 06:28:37;;;;;;;3.92;3.38;;;27.30;50.90;;;;;;5094528;28;20167;-81
2023/06/09 06:31:03;;;;;;;3.75;3.45;;;27.30;50.80;;;;;;5096396;28;20602;-80
2023/06/09 06:33:30;;;;;;;4.53;3.38;;;27.30;50.70;;;;;;5094714;28;20135;-80
2023/06/09 06:35:56;;;;;;;3.95;3.28;;;27.30;50.60;;;;;;5096110;28;20125;-80
2023/06/09 06:38:22;;;;;;;6.95;3.42;;;27.30;50.60;;;;;;5095717;28;20032;-82
2023/06/09 06:40:48;;;;;;;4.75;3.30;;;27.30;50.60;;;;;;5094679;28;20043;-82
2023/06/09 06:43:15;;;;;;;4.05;3.55;;;27.30;50.40;;;;;;5094151;28;20032;-81
2023/06/09 06:45:55;;;;;;;3.63;3.33;;;27.30;50.50;;;;;;5094644;28;20030;-81
2023/06/09 06:48:21;;;;;;;3.63;3.20;;;27.40;50.40;;;;;;5094187;28;20036;-82
2023/06/09 06:50:47;;;;;;;3.85;3.42;;;27.40;50.20;;;;;;5095505;28;20065;-81
2023/06/09 06:53:13;;;;;;;4.22;3.60;;;27.40;50.30;;;;;;5095105;28;20108;-81
2023/06/09 06:55:39;;;;;;;3.92;3.28;;;27.50;50.10;;;;;;5095595;28;20039;-81
2023/06/09 06:58:05;;;;;;;3.45;3.15;;;27.50;50.10;;;;;;5095882;28;20116;-81
2023/06/09 07:00:31;;;;;;;3.63;3.28;;;27.50;49.90;;;;;;5095317;28;20060;-81
2023/06/09 07:02:57;;;;;;;3.22;3.03;;;27.50;49.80;;;;;;5094707;28;20425;-81
2023/06/09 07:05:23;;;;;;;3.78;3.33;;;27.50;49.70;;;;;;5095749;28;20028;-80
2023/06/09 07:07:49;;;;;;;4.90;3.28;;;27.60;49.70;;;;;;5094807;28;20032;-81
2023/06/09 07:10:15;;;;;;;4.85;3.47;;;27.50;49.60;;;;;;5095507;28;20043;-83
2023/06/09 07:12:41;;;;;;;4.72;3.03;;;27.50;49.50;;;;;;5095776;28;20100;-82
2023/06/09 07:15:08;;;;;;;7.32;3.35;;;27.50;49.40;;;;;;5094866;28;20520;-82
2023/06/09 07:17:34;;;;;;;3.78;3.17;;;27.50;49.40;;;;;;5095383;28;20023;-81
2023/06/09 07:20:00;;;;;;;3.55;3.25;;;27.50;49.40;;;;;;5095226;28;20421;-82
2023/06/09 07:22:26;;;;;;;4.63;3.30;;;27.50;49.30;;;;;;5096044;28;20123;-82
2023/06/09 07:24:52;;;;;;;5.00;2.88;;;27.50;49.20;;;;;;5095854;28;20089;-82
2023/06/09 07:27:18;;;;;;;3.65;3.08;;;27.50;49.10;;;;;;5094333;28;20483;-82
2023/06/09 07:29:44;;;;;;;3.95;3.20;;;27.50;49.10;;;;;;5094728;28;20032;-82
2023/06/09 07:32:10;;;;;;;4.95;3.42;;;27.50;49.10;;;;;;5096141;28;20024;-80
2023/06/09 07:34:37;;;;;;;3.50;3.20;;;27.50;49.60;;;;;;5094017;28;20108;-82
2023/06/09 07:37:04;;;;;;;3.17;2.88;;;27.50;48.90;;;;;;5095660;28;20054;-82
2023/06/09 07:39:30;;;;;;;4.32;2.63;;;27.50;48.80;;;;;;5093091;28;20051;-81
2023/06/09 07:41:56;;;;;;;3.63;3.33;;;27.40;48.70;;;;;;5094049;28;20032;-82
2023/06/09 07:44:24;;;;;;;5.10;3.00;;;27.40;48.50;;;;;;5094483;28;20039;-82
2023/06/09 07:46:50;;;;;;;3.97;3.50;;;27.40;48.40;;;;;;5094465;28;20055;-82
2023/06/09 07:49:16;;;;;;;4.22;3.42;;;27.40;48.30;;;;;;5094989;28;20040;-82
2023/06/09 07:51:46;;;;;;;6.03;3.50;;;27.30;48.30;;;;;;5095719;28;20479;-82
2023/06/09 07:54:12;;;;;;;4.40;3.20;;;27.40;48.20;;;;;;5096094;28;20055;-82
2023/06/09 07:56:38;;;;;;;3.53;3.22;;;27.30;48.10;;;;;;5098424;28;20101;-82
2023/06/09 07:59:05;;;;;;;3.80;3.20;;;27.30;48.10;;;;;;5099917;28;20032;-83
2023/06/09 08:01:32;;;;;;;4.90;3.58;;;27.30;47.90;;;;;;5099304;28;20130;-82
2023/06/09 08:04:01;;;;;;;5.30;3.20;;;27.30;48.40;;;;;;5098405;28;20039;-82
2023/06/09 08:06:28;;;;;;;3.72;3.40;;;27.20;47.80;;;;;;5098390;28;20394;-82
2023/06/09 08:08:55;;;;;;;4.22;3.38;;;27.20;47.80;;;;;;5098855;28;20147;-82
2023/06/09 08:11:21;;;;;;;5.18;3.42;;;27.20;47.60;;;;;;5098386;28;20040;-82
2023/06/09 08:13:47;;;;;;;3.50;3.20;;;27.20;47.60;;;;;;5099952;28;20028;-82
2023/06/09 08:16:13;;;;;;;5.05;3.20;;;27.20;47.70;;;;;;5098676;28;20119;-82
2023/06/09 08:18:39;;;;;;;5.60;3.53;;;27.10;47.60;;;;;;5099165;28;20036;-83
2023/06/09 08:21:05;;;;;;;6.15;3.47;;;27.20;47.50;;;;;;5097474;28;20602;-82
2023/06/09 08:23:32;;;;;;;4.53;3.30;;;27.10;47.40;;;;;;5098667;28;20038;-82
2023/06/09 08:25:58;;;;;;;5.40;3.30;;;27.10;47.40;;;;;;5097805;28;20028;-82
2023/06/09 08:28:24;;;;;;;5.75;3.40;;;27.10;47.30;;;;;;5097583;28;20042;-81
2023/06/09 08:30:50;;;;;;;3.58;3.10;;;27.10;47.10;;;;;;5097228;28;20135;-82
2023/06/09 08:33:16;;;;;;;6.65;3.78;;;27.00;47.10;;;;;;5099282;28;20134;-82
2023/06/09 08:35:42;;;;;;;4.53;3.70;;;27.00;46.80;;;;;;5096914;28;20032;-82
2023/06/09 08:38:08;;;;;;;3.95;3.45;;;27.00;46.70;;;;;;5098729;28;20031;-82
2023/06/09 08:40:35;;;;;;;4.10;3.40;;;27.00;46.60;;;;;;5098088;28;20046;-82
2023/06/09 08:43:05;;;;;;;4.60;3.47;;;27.00;46.50;;;;;;5088565;28;20423;-82
2023/06/09 08:45:34;;;;;;;3.83;3.33;;;27.00;46.50;;;;;;5097404;28;20028;-82
2023/06/09 08:48:02;;;;;;;3.50;3.20;;;26.90;46.40;;;;;;5096836;28;20158;-82
2023/06/09 08:50:30;;;;;;;4.00;3.60;;;26.90;46.40;;;;;;5096458;28;20039;-82
2023/06/09 08:52:57;;;;;;;3.55;3.25;;;26.90;46.30;;;;;;5096961;28;20750;-82
2023/06/09 08:55:24;;;;;;;3.78;3.40;;;26.90;46.40;;;;;;5096726;28;20518;-82
2023/06/09 08:57:50;;;;;;;4.68;3.40;;;26.90;46.40;;;;;;5095960;28;20126;-80
2023/06/09 09:00:16;;;;;;;6.20;3.60;;;26.90;46.40;;;;;;5096747;28;20083;-81
2023/06/09 09:02:44;;;;;;;3.97;3.33;;;26.90;46.40;;;;;;5098261;28;20442;-81
2023/06/09 09:05:10;;;;;;;4.47;3.67;;;26.90;46.20;;;;;;5097573;28;20034;-81
2023/06/09 09:07:38;;;;;;;3.80;3.30;;;26.80;46.10;;;;;;5088918;28;21582;-81
2023/06/09 09:10:07;;;;;;;3.83;3.53;;;26.80;46.10;;;;;;5110572;27;20044;-81
2023/06/09 09:12:58;;;;;;;3.67;3.38;;;26.80;46.00;;;;;;5097358;28;20031;-81
2023/06/09 09:15:27;;;;;;;4.13;3.45;;;26.80;46.00;;;;;;5097890;28;20028;-81
2023/06/09 09:17:55;;;;;;;3.78;3.15;;;26.80;46.00;;;;;;5097543;28;20513;-81
2023/06/09 09:20:32;;;;;;;5.07;3.15;;;26.80;46.00;;;;;;5095782;28;20498;-81
2023/06/09 09:22:58;;;;;;;7.60;3.35;;;26.70;46.00;;;;;;5096625;28;20036;-81
2023/06/09 09:25:27;;;;;;;3.72;3.22;;;26.80;45.80;;;;;;5095792;28;20064;-81
2023/06/09 09:28:11;;;;;;;4.38;3.40;;;26.70;45.70;;;;;;5097942;28;20057;-81
2023/06/09 09:30:47;;;;;;;5.40;3.33;;;26.70;45.60;;;;;;5097551;28;20741;-82
2023/06/09 09:33:24;;;;;;;3.90;3.20;;;26.70;45.60;;;;;;5096899;28;20536;-81
2023/06/09 09:35:59;;;;;;;4.13;3.33;;;26.70;45.60;;;;;;5096189;28;20410;-81
2023/06/09 09:38:29;;;;;;;3.97;3.53;;;26.70;45.50;;;;;;5097241;28;20513;-81
2023/06/09 09:40:57;;;;;;;5.20;3.30;;;26.70;45.60;;;;;;5096649;28;20567;-82
2023/06/09 09:43:28;;;;;;;3.53;3.22;;;26.70;45.80;;;;;;5101472;28;20031;-82
2023/06/09 09:46:04;;;;;;;4.05;3.20;;;26.60;45.60;;;;;;5096714;28;20505;-81
2023/06/09 09:48:30;;;;;;;4.68;3.25;;;26.60;45.60;;;;;;5095382;28;20032;-81
2023/06/09 09:50:57;;;;;;;3.88;3.40;;;26.60;45.60;;;;;;5097105;28;20071;-81
2023/06/09 09:53:24;;;;;;;3.78;3.45;;;26.60;45.50;;;;;;5096552;28;20028;-81
2023/06/09 09:55:53;;;;;;;4.72;3.53;;;26.70;45.50;;;;;;5096797;28;20026;-81
2023/06/09 09:58:20;;;;;;;4.63;3.03;;;26.60;45.60;;;;;;5096187;28;20043;-81
2023/06/09 10:00:47;;;;;;;4.05;3.10;;;26.60;45.50;;;;;;5097072;28;20040;-81
2023/06/09 10:03:17;;;;;;;5.03;3.78;;;26.60;45.50;;;;;;5094913;28;20490;-81
2023/06/09 10:05:46;;;;;;;4.10;3.38;;;26.60;45.60;;;;;;5095407;28;20108;-81
2023/06/09 10:08:21;;;;;;;3.65;3.15;;;26.60;45.50;;;;;;5095144;28;20028;-81
2023/06/09 10:10:49;;;;;;;3.65;3.35;;;26.60;45.40;;;;;;5098004;28;20064;-81
2023/06/09 10:13:15;;;;;;;4.53;3.25;;;26.60;45.20;;;;;;5096350;28;20390;-81
2023/06/09 10:15:43;;;;;;;4.03;3.10;;;26.60;44.40;;;;;;5095796;28;20514;-81
2023/06/09 10:18:10;;;;;;;3.60;3.30;;;26.60;44.90;;;;;;5095656;28;20123;-81
2023/06/09 10:20:36;;;;;;;4.45;3.40;;;26.60;44.90;;;;;;5095588;28;20403;-81
2023/06/09 10:23:04;;;;;;;3.60;3.30;;;26.50;44.60;;;;;;5097220;28;20045;-81
2023/06/09 10:25:31;;;;;;;4.95;3.42;;;26.50;44.70;;;;;;5095227;28;20035;-81
2023/06/09 10:27:57;;;;;;;5.60;3.72;;;26.60;44.70;;;;;;5094220;28;20434;-81
2023/06/09 10:30:23;;;;;;;3.42;3.08;;;26.50;44.70;;;;;;5095683;28;20100;-81
2023/06/09 10:33:11;;;;;;;3.60;3.30;;;26.50;45.00;;;;;;5094849;28;20069;-82
2023/06/09 10:35:38;;;;;;;3.95;3.20;;;26.50;45.10;;;;;;5096221;28;20040;-81
2023/06/09 10:38:28;;;;;;;3.35;3.05;;;26.50;45.10;;;;;;5097212;28;20421;-80
2023/06/09 10:41:12;;;;;;;3.78;3.22;;;26.50;45.10;;;;;;5094234;28;20036;-82
2023/06/09 10:43:53;;;;;;;3.92;3.47;;;26.50;44.80;;;;;;5094993;28;20557;-82
2023/06/09 10:46:42;;;;;;;3.78;3.47;;;26.50;45.00;;;;;;5094824;28;20063;-81
2023/06/09 10:49:34;;;;;;;3.83;3.42;;;26.40;45.40;;;;;;5096674;28;20035;-80
2023/06/09 10:52:01;;;;;;;4.57;3.55;;;26.40;44.60;;;;;;5094629;28;20051;-80
2023/06/09 10:54:29;;;;;;;3.92;3.53;;;26.40;44.80;;;;;;5095661;28;20031;-81
2023/06/09 10:57:00;;;;;;;4.43;3.20;;;26.40;44.70;;;;;;5095176;28;20035;-81
2023/06/09 10:59:26;;;;;;;4.38;3.40;;;26.40;44.00;;;;;;5093892;28;20265;-81
2023/06/09 11:02:08;;;;;;;3.95;3.55;;;26.40;44.70;;;;;;5095742;28;20027;-82
2023/06/09 11:04:46;;;;;;;4.03;3.63;;;26.40;44.70;;;;;;5096317;28;20034;-80
2023/06/09 11:07:15;;;;;;;3.55;3.25;;;26.40;44.80;;;;;;5094695;28;20031;-80
2023/06/09 11:10:01;;;;;;;4.05;3.40;;;26.40;44.80;;;;;;5095278;28;20514;-81
2023/06/09 11:12:38;;;;;;;4.10;3.20;;;26.40;44.80;;;;;;5095778;28;20032;-81
2023/06/09 11:15:06;;;;;;;3.58;3.28;;;26.40;44.70;;;;;;5096131;28;20494;-80
2023/06/09 11:17:40;;;;;;;3.88;3.50;;;26.40;44.80;;;;;;5093773;28;20032;-81
2023/06/09 11:22:50;;;;;;;3.30;3.00;;;26.40;44.80;;;;;;5095628;28;20472;-81
2023/06/09 11:25:23;;;;;;;3.80;3.33;;;26.40;44.70;;;;;;5081506;28;20032;-81
2023/06/09 11:28:09;;;;;;;3.88;3.58;;;26.30;44.80;;;;;;5095809;28;20047;-82
2023/06/09 11:31:05;;;;;;;3.47;3.17;;;26.40;45.00;;;;;;5097965;28;20036;-82
2023/06/09 11:33:42;;;;;;;;;;;26.30;45.00;;;;;;5099294;28;20149;-82
2023/06/09 11:36:09;;;;;;;3.90;3.40;;;26.30;45.10;;;;;;5099952;28;19916;-81
2023/06/09 11:38:36;;;;;;;3.53;3.17;;;26.30;45.20;;;;;;5099698;28;20031;-82
2023/06/09 11:41:04;;;;;;;4.45;2.85;;;26.30;45.50;;;;;;5098425;28;20031;-80
2023/06/09 11:43:30;;;;;;;3.58;2.90;;;26.30;45.50;;;;;;5098841;28;20090;-81
2023/06/09 11:46:03;;;;;;;3.80;3.38;;;26.30;45.60;;;;;;5099541;28;20028;-81
2023/06/09 11:48:29;;;;;;;3.90;3.00;;;26.30;45.60;;;;;;5097160;28;20028;-81
2023/06/09 11:50:56;;;;;;;3.88;3.17;;;26.30;45.30;;;;;;5098260;28;20444;-81
2023/06/09 11:53:24;;;;;;;3.10;2.80;;;26.30;45.30;;;;;;5099195;28;20024;-81
2023/06/09 11:56:06;;;;;;;4.65;3.20;;;26.30;45.20;;;;;;5096653;28;20102;-81
2023/06/09 11:58:32;;;;;;;4.47;3.35;;;26.20;45.10;;;;;;5098975;28;20038;-82
2023/06/09 12:00:58;;;;;;;3.30;2.97;;;26.20;45.00;;;;;;5098383;28;20040;-82
2023/06/09 12:03:25;;;;;;;3.40;3.03;;;26.30;45.00;;;;;;5099051;28;20077;-82
2023/06/09 12:05:52;;;;;;;3.72;3.42;;;26.20;44.80;;;;;;5098432;28;20524;-82
2023/06/09 12:08:21;;;;;;;9.00;3.92;;;26.30;45.20;;;;;;5098714;28;20043;-80
2023/06/09 12:10:47;;;;;;;14.15;3.85;;;26.20;44.70;;;;;;5096860;28;20418;-81
2023/06/09 12:13:13;;;;;;;13.43;3.80;;;26.20;44.30;;;;;;5080479;28;20028;-80
2023/06/09 12:15:45;;;;;;;8.93;3.47;;;26.20;45.10;;;;;;5079418;28;20575;-80
2023/06/09 12:18:11;;;;;;;13.05;3.75;;;26.10;45.60;;;;;;5112910;27;20040;-81
2023/06/09 12:20:37;;;;;;;13.32;3.90;;;26.10;46.10;;;;;;5102310;28;20384;-81
2023/06/09 12:23:17;;;;;;;12.77;3.60;;;26.10;46.50;;;;;;5099575;28;20024;-81
2023/06/09 12:25:46;;;;;;;12.23;4.00;;;26.10;46.90;;;;;;5096999;28;20031;-80
2023/06/09 12:28:31;;;;;;;10.88;3.67;;;26.10;47.50;;;;;;5097433;28;20506;-80
2023/06/09 12:31:08;;;;;;;8.40;3.60;;;26.00;47.50;;;;;;5097797;28;20063;-81
2023/06/09 12:33:35;;;;;;;6.63;3.30;;;25.90;48.00;;;;;;5098054;28;20131;-81
2023/06/09 12:36:07;;;;;;;10.40;3.75;;;25.90;48.20;;;;;;5097162;28;20066;-80
2023/06/09 12:38:43;;;;;;;9.00;3.20;;;25.80;48.40;;;;;;5097114;28;20032;-81
2023/06/09 12:41:14;;;;;;;7.57;3.50;;;25.80;48.50;;;;;;5098611;28;20106;-81
2023/06/09 12:43:48;;;;;;;6.57;3.00;;;25.80;48.80;;;;;;5097606;28;20036;-80
2023/06/09 12:46:28;;;;;;;6.78;3.40;;;25.80;48.90;;;;;;5097146;28;20032;-80
2023/06/09 12:48:55;;;;;;;6.18;3.00;;;25.80;49.10;;;;;;5097276;27;20039;-81
2023/06/09 12:51:21;;;;;;;8.55;3.17;;;25.70;49.10;;;;;;5097438;28;20040;-80
2023/06/09 12:53:49;;;;;;;6.68;2.90;;;25.70;49.10;;;;;;5097517;28;20042;-81
2023/06/09 12:56:15;;;;;;;7.60;3.20;;;25.70;49.00;;;;;;5098814;28;20031;-81